Time;durP1;ratioP1;P1;durP2;ratioP2;P2;SDS_P1;SDS_P2;PMS_P1;PMS_P2;Temp;Humidity;BMP_temperature;BMP_pressure;BME280_temperature;BME280_humidity;BME280_pressure;Samples;Min_cycle;Max_cycle;Signal;HPM_P1;HPM_P2
2022/04/19 00:01:21;;;;;;;3.50;0.82;;;;;;;;;;5041683;28;20037;-65
2022/04/19 00:03:48;;;;;;;3.50;0.80;;;;;;;;;;5041254;28;21589;-64
2022/04/19 00:06:15;;;;;;;3.78;1.00;;;;;;;;;;5041577;28;20437;-63
2022/04/19 00:08:41;;;;;;;10.50;1.30;;;;;;;;;;5042388;28;20033;-64
2022/04/19 00:11:08;;;;;;;3.70;0.95;;;;;;;;;;5042743;28;20950;-64
2022/04/19 00:13:35;;;;;;;3.70;1.00;;;;;;;;;;5041759;28;20066;-64
2022/04/19 00:16:02;;;;;;;2.75;0.90;;;;;;;;;;5043416;28;20077;-64
2022/04/19 00:18:29;;;;;;;3.78;0.90;;;;;;;;;;5041665;28;20053;-64
2022/04/19 00:20:56;;;;;;;2.92;0.93;;;;;;;;;;5044280;28;20046;-64
2022/04/19 00:23:23;;;;;;;2.85;0.95;;;;;;;;;;5042054;28;20559;-64
2022/04/19 00:25:53;;;;;;;3.42;0.73;;;;;;;;;;5042256;28;20084;-63
2022/04/19 00:28:20;;;;;;;5.22;0.80;;;;;;;;;;5008158;28;20360;-64
2022/04/19 00:30:50;;;;;;;3.20;0.85;;;;;;;;;;5041969;28;20064;-65
2022/04/19 00:33:17;;;;;;;3.97;0.90;;;;;;;;;;5041765;28;20746;-64
2022/04/19 00:35:43;;;;;;;2.45;0.80;;;;;;;;;;5042568;28;20052;-64
2022/04/19 00:38:10;;;;;;;4.55;1.00;;;;;;;;;;5038263;28;20073;-64
2022/04/19 00:40:37;;;;;;;6.07;1.10;;;;;;;;;;5040729;28;20047;-63
2022/04/19 00:43:05;;;;;;;3.65;1.10;;;;;;;;;;5040406;28;20114;-64
2022/04/19 00:45:34;;;;;;;2.30;0.77;;;;;;;;;;5040336;28;20057;-63
2022/04/19 00:48:02;;;;;;;4.75;1.10;;;;;;;;;;5037897;28;20050;-63
2022/04/19 00:50:29;;;;;;;3.97;0.90;;;;;;;;;;5042166;28;20064;-64
2022/04/19 00:52:55;;;;;;;3.00;0.90;;;;;;;;;;5042707;28;20117;-64
2022/04/19 00:55:23;;;;;;;3.80;1.00;;;;;;;;;;5042286;28;20128;-64
2022/04/19 00:57:51;;;;;;;5.57;1.13;;;;;;;;;;5042347;28;20037;-64
2022/04/19 01:00:17;;;;;;;4.75;0.80;;;;;;;;;;5044161;28;20045;-64
2022/04/19 01:02:44;;;;;;;3.75;0.98;;;;;;;;;;5021951;28;20033;-63
2022/04/19 01:05:11;;;;;;;4.72;1.20;;;;;;;;;;5043158;28;20041;-63
2022/04/19 01:07:39;;;;;;;7.65;1.00;;;;;;;;;;5043794;28;20482;-62
2022/04/19 01:10:06;;;;;;;3.35;0.90;;;;;;;;;;5043436;28;20545;-63
2022/04/19 01:15:18;;;;;;;4.30;0.95;;;;;;;;;;5040513;28;21001;-65
2022/04/19 01:17:45;;;;;;;8.93;1.20;;;;;;;;;;5040262;28;20087;-66
2022/04/19 01:20:12;;;;;;;5.95;1.35;;;;;;;;;;5021441;28;20042;-64
2022/04/19 01:22:43;;;;;;;3.63;1.00;;;;;;;;;;5039419;28;20036;-64
2022/04/19 01:25:11;;;;;;;5.70;0.93;;;;;;;;;;5040835;28;20106;-64
2022/04/19 01:27:38;;;;;;;3.97;0.88;;;;;;;;;;5041824;28;20036;-64
2022/04/19 01:30:08;;;;;;;4.50;1.00;;;;;;;;;;5041827;28;20110;-64
2022/04/19 01:32:35;;;;;;;6.43;1.20;;;;;;;;;;5040212;28;20638;-64
2022/04/19 01:35:09;;;;;;;4.55;1.00;;;;;;;;;;5022016;28;20123;-64
2022/04/19 01:37:36;;;;;;;5.55;1.00;;;;;;;;;;5039101;28;20924;-65
2022/04/19 01:40:19;;;;;;;4.63;0.90;;;;;;;;;;5042141;28;20052;-64
2022/04/19 01:42:49;;;;;;;4.65;0.75;;;;;;;;;;5039830;28;20045;-63
2022/04/19 01:45:26;;;;;;;4.25;1.08;;;;;;;;;;5041962;28;20055;-63
2022/04/19 01:47:54;;;;;;;3.70;0.82;;;;;;;;;;5043034;28;20151;-63
2022/04/19 01:50:21;;;;;;;4.22;1.30;;;;;;;;;;5036575;28;20574;-64
2022/04/19 01:52:48;;;;;;;2.28;0.80;;;;;;;;;;5040801;28;20095;-63
2022/04/19 01:55:16;;;;;;;3.80;0.90;;;;;;;;;;5042452;28;20037;-63
2022/04/19 01:57:43;;;;;;;3.92;1.17;;;;;;;;;;5040391;28;20047;-63
2022/04/19 02:00:10;;;;;;;2.92;0.90;;;;;;;;;;5043002;28;20448;-62
2022/04/19 02:02:37;;;;;;;2.40;0.82;;;;;;;;;;5041233;28;20025;-63
2022/04/19 02:05:04;;;;;;;3.25;0.95;;;;;;;;;;5038954;28;20067;-64
2022/04/19 02:07:34;;;;;;;3.15;1.00;;;;;;;;;;5044349;28;20036;-64
2022/04/19 02:10:01;;;;;;;5.70;0.85;;;;;;;;;;5044729;28;20991;-64
2022/04/19 02:12:28;;;;;;;2.45;0.88;;;;;;;;;;5025491;28;20057;-63
2022/04/19 02:14:55;;;;;;;3.70;0.95;;;;;;;;;;5042884;28;20037;-64
2022/04/19 02:17:23;;;;;;;3.13;0.70;;;;;;;;;;5043034;28;20391;-63
2022/04/19 02:20:06;;;;;;;3.83;0.80;;;;;;;;;;5042703;28;20044;-64
2022/04/19 02:22:33;;;;;;;2.57;0.90;;;;;;;;;;5040640;28;20052;-63
2022/04/19 02:25:00;;;;;;;3.25;0.80;;;;;;;;;;5039913;28;20044;-64
2022/04/19 02:27:30;;;;;;;2.70;0.80;;;;;;;;;;5040931;28;20041;-64
2022/04/19 02:29:57;;;;;;;2.38;0.70;;;;;;;;;;5021973;28;20097;-63
2022/04/19 02:32:24;;;;;;;4.72;0.90;;;;;;;;;;5040027;28;20071;-64
2022/04/19 02:34:51;;;;;;;4.55;0.93;;;;;;;;;;5044263;28;20485;-64
2022/04/19 02:37:18;;;;;;;3.05;0.80;;;;;;;;;;5045029;28;20491;-64
2022/04/19 02:39:48;;;;;;;2.38;0.73;;;;;;;;;;5041502;28;20467;-64
2022/04/19 02:42:15;;;;;;;2.17;0.70;;;;;;;;;;5045730;28;20040;-64
2022/04/19 02:44:42;;;;;;;2.50;0.90;;;;;;;;;;5042792;28;20033;-63
2022/04/19 02:47:08;;;;;;;3.67;0.82;;;;;;;;;;5044872;28;20037;-63
2022/04/19 02:49:36;;;;;;;3.85;0.73;;;;;;;;;;5022896;28;20044;-63
2022/04/19 02:52:04;;;;;;;3.15;0.88;;;;;;;;;;5044182;28;20040;-63
2022/04/19 02:54:30;;;;;;;5.25;1.88;;;;;;;;;;5043697;28;20128;-62
2022/04/19 02:56:57;;;;;;;4.40;1.25;;;;;;;;;;5043927;28;20083;-67
2022/04/19 02:59:24;;;;;;;4.57;0.80;;;;;;;;;;5042151;28;20121;-64
2022/04/19 03:01:51;;;;;;;2.45;0.77;;;;;;;;;;5042275;28;20095;-66
2022/04/19 03:04:20;;;;;;;2.85;0.90;;;;;;;;;;5045618;28;20056;-63
2022/04/19 03:06:47;;;;;;;2.90;0.73;;;;;;;;;;5043388;28;20528;-62
2022/04/19 03:09:14;;;;;;;4.30;0.70;;;;;;;;;;5043743;28;20066;-62
2022/04/19 03:11:40;;;;;;;3.67;0.77;;;;;;;;;;5041688;28;20051;-63
2022/04/19 03:14:07;;;;;;;2.78;0.80;;;;;;;;;;5042952;28;20489;-63
2022/04/19 03:16:34;;;;;;;3.67;0.80;;;;;;;;;;5043195;28;20123;-62
2022/04/19 03:19:01;;;;;;;2.33;0.70;;;;;;;;;;5046218;28;20079;-61
2022/04/19 03:21:27;;;;;;;4.22;0.98;;;;;;;;;;5042978;28;20114;-62
2022/04/19 03:29:24;;;;;;;3.17;0.90;;;;;;;;;;5044426;28;21791;-61
2022/04/19 03:31:51;;;;;;;3.42;1.13;;;;;;;;;;5043091;28;20274;-62
2022/04/19 03:34:18;;;;;;;3.50;0.98;;;;;;;;;;5044849;28;20060;-62
2022/04/19 03:36:45;;;;;;;2.78;0.90;;;;;;;;;;5043101;28;20041;-63
2022/04/19 03:39:12;;;;;;;3.00;0.93;;;;;;;;;;5044285;28;20029;-62
2022/04/19 03:41:38;;;;;;;2.58;0.98;;;;;;;;;;5042987;28;20049;-62
2022/04/19 03:44:06;;;;;;;7.35;0.90;;;;;;;;;;5044469;28;20041;-62
2022/04/19 03:47:06;;;;;;;5.35;1.20;;;;;;;;;;5044956;28;20094;-61
2022/04/19 03:49:19;;;;;;;3.65;1.00;;;;;;;;;;5046064;28;20136;-61
2022/04/19 03:51:46;;;;;;;5.32;0.77;;;;;;;;;;5043483;28;20044;-62
2022/04/19 03:54:13;;;;;;;2.88;0.80;;;;;;;;;;5044409;28;20053;-62
2022/04/19 03:56:39;;;;;;;3.88;0.88;;;;;;;;;;5042604;28;20127;-62
2022/04/19 03:59:06;;;;;;;3.33;0.75;;;;;;;;;;5044755;28;20346;-62
2022/04/19 04:01:33;;;;;;;4.35;1.00;;;;;;;;;;5043462;28;20048;-62
2022/04/19 04:03:59;;;;;;;2.92;1.02;;;;;;;;;;5044981;28;20110;-60
2022/04/19 04:06:27;;;;;;;3.83;0.73;;;;;;;;;;5044447;28;20811;-61
2022/04/19 04:08:54;;;;;;;5.03;0.73;;;;;;;;;;5043752;28;20036;-62
2022/04/19 04:11:20;;;;;;;2.40;0.77;;;;;;;;;;5042137;28;21726;-63
2022/04/19 04:13:47;;;;;;;3.05;0.70;;;;;;;;;;5043272;28;20045;-62
2022/04/19 04:16:14;;;;;;;4.32;0.80;;;;;;;;;;5044351;28;20037;-63
2022/04/19 04:18:52;;;;;;;3.40;0.95;;;;;;;;;;5042450;28;20045;-62
2022/04/19 04:21:19;;;;;;;3.58;0.85;;;;;;;;;;5029413;28;20131;-61
2022/04/19 04:23:46;;;;;;;4.93;0.73;;;;;;;;;;5024008;28;20045;-62
2022/04/19 04:26:13;;;;;;;3.92;1.00;;;;;;;;;;5044848;28;20071;-63
2022/04/19 04:28:39;;;;;;;3.63;1.00;;;;;;;;;;5042439;28;20033;-63
2022/04/19 04:31:06;;;;;;;3.63;0.98;;;;;;;;;;5042796;28;20045;-60
2022/04/19 04:33:33;;;;;;;2.95;0.95;;;;;;;;;;5040125;28;20109;-61
2022/04/19 04:35:59;;;;;;;3.28;0.80;;;;;;;;;;5040641;28;20346;-61
2022/04/19 04:38:26;;;;;;;2.85;0.80;;;;;;;;;;5041695;28;20040;-63
2022/04/19 04:40:53;;;;;;;3.50;1.10;;;;;;;;;;5041761;28;20044;-60
2022/04/19 04:43:19;;;;;;;2.30;0.80;;;;;;;;;;5042400;28;20478;-61
2022/04/19 04:49:35;;;;;;;2.30;0.80;;;;;;;;;;5040506;28;20045;-61
2022/04/19 04:51:18;;;;;;;4.18;0.70;;;;;;;;;;5041571;28;21192;-59
2022/04/19 04:53:44;;;;;;;2.88;0.70;;;;;;;;;;5042785;28;20041;-60
2022/04/19 04:56:11;;;;;;;2.63;0.80;;;;;;;;;;5041632;28;20142;-60
2022/04/19 04:58:38;;;;;;;3.70;0.77;;;;;;;;;;5041108;28;20044;-60
2022/04/19 05:01:04;;;;;;;2.10;0.80;;;;;;;;;;5043132;28;20090;-61
2022/04/19 05:03:31;;;;;;;4.13;1.08;;;;;;;;;;5039953;28;20055;-60
2022/04/19 05:05:58;;;;;;;4.97;0.93;;;;;;;;;;5039128;28;20077;-61
2022/04/19 05:08:25;;;;;;;3.80;1.10;;;;;;;;;;5038635;28;20033;-61
2022/04/19 05:10:51;;;;;;;4.47;1.10;;;;;;;;;;5042081;28;20075;-61
2022/04/19 05:13:18;;;;;;;3.42;0.90;;;;;;;;;;5041944;28;20049;-60
2022/04/19 05:15:45;;;;;;;5.05;1.10;;;;;;;;;;5040801;28;20041;-61
2022/04/19 05:18:14;;;;;;;2.60;0.80;;;;;;;;;;5041316;28;20049;-61
2022/04/19 05:20:42;;;;;;;3.90;1.00;;;;;;;;;;5022365;28;20487;-63
2022/04/19 05:23:09;;;;;;;2.92;0.95;;;;;;;;;;5040123;28;20052;-62
2022/04/19 05:25:35;;;;;;;3.42;0.90;;;;;;;;;;5039849;28;21668;-64
2022/04/19 05:28:02;;;;;;;3.75;0.85;;;;;;;;;;5041301;28;20037;-62
2022/04/19 05:30:29;;;;;;;4.65;1.05;;;;;;;;;;5039200;28;20040;-62
2022/04/19 05:32:56;;;;;;;3.13;0.90;;;;;;;;;;5040893;28;20045;-62
2022/04/19 05:35:22;;;;;;;5.82;1.00;;;;;;;;;;5040214;28;20044;-63
2022/04/19 05:37:49;;;;;;;3.20;0.77;;;;;;;;;;5021047;28;20119;-62
2022/04/19 05:40:16;;;;;;;6.07;1.17;;;;;;;;;;5040745;28;20055;-62
2022/04/19 05:42:43;;;;;;;3.40;1.00;;;;;;;;;;5040129;28;20045;-62
2022/04/19 05:45:10;;;;;;;3.28;1.00;;;;;;;;;;5040848;28;20072;-61
2022/04/19 05:47:37;;;;;;;2.15;0.77;;;;;;;;;;5039252;28;20083;-61
2022/04/19 05:50:04;;;;;;;5.32;1.00;;;;;;;;;;5040267;28;20045;-61
2022/04/19 05:52:30;;;;;;;2.78;0.93;;;;;;;;;;5038348;28;20477;-61
2022/04/19 05:54:57;;;;;;;3.92;0.90;;;;;;;;;;5040674;28;20033;-60
2022/04/19 05:57:24;;;;;;;5.07;0.98;;;;;;;;;;5038786;28;20132;-61
2022/04/19 05:59:51;;;;;;;2.70;0.90;;;;;;;;;;5041484;28;20044;-62
2022/04/19 06:05:04;;;;;;;4.30;1.10;;;;;;;;;;5040577;28;20535;-62
2022/04/19 06:07:31;;;;;;;2.30;0.80;;;;;;;;;;5040171;28;20037;-62
2022/04/19 06:09:58;;;;;;;4.15;0.93;;;;;;;;;;5039706;28;20037;-64
2022/04/19 06:12:25;;;;;;;2.90;0.95;;;;;;;;;;5038821;28;20033;-61
2022/04/19 06:14:52;;;;;;;3.95;1.10;;;;;;;;;;5040690;28;20037;-60
2022/04/19 06:17:19;;;;;;;3.22;0.80;;;;;;;;;;5037808;28;20044;-59
2022/04/19 06:19:45;;;;;;;5.55;1.00;;;;;;;;;;5039618;28;20397;-60
2022/04/19 06:22:13;;;;;;;3.15;0.98;;;;;;;;;;5040881;28;20058;-61
2022/04/19 06:24:39;;;;;;;5.97;1.20;;;;;;;;;;5038919;28;20533;-60
2022/04/19 06:27:08;;;;;;;4.72;1.05;;;;;;;;;;5039611;28;20075;-61
2022/04/19 06:29:34;;;;;;;3.60;1.13;;;;;;;;;;5042562;28;20405;-59
2022/04/19 06:32:01;;;;;;;4.13;0.95;;;;;;;;;;5046496;28;20033;-61
2022/04/19 06:34:28;;;;;;;3.90;1.00;;;;;;;;;;5047741;28;20521;-59
2022/04/19 06:36:55;;;;;;;2.55;0.90;;;;;;;;;;5032902;28;20055;-61
2022/04/19 06:39:21;;;;;;;3.40;0.88;;;;;;;;;;5046534;28;20171;-61
2022/04/19 06:41:51;;;;;;;2.67;0.88;;;;;;;;;;5049745;28;20037;-60
2022/04/19 06:44:18;;;;;;;2.47;0.90;;;;;;;;;;5046311;28;20045;-59
2022/04/19 06:46:50;;;;;;;2.47;0.90;;;;;;;;;;5041863;28;20047;-58
2022/04/19 06:49:17;;;;;;;4.40;1.20;;;;;;;;;;5043267;28;20032;-57
2022/04/19 06:51:44;;;;;;;3.80;1.10;;;;;;;;;;5045633;28;20501;-59
2022/04/19 06:54:12;;;;;;;3.28;1.20;;;;;;;;;;5044068;28;20522;-58
2022/04/19 06:56:39;;;;;;;2.47;1.00;;;;;;;;;;5045956;28;20036;-59
2022/04/19 06:59:08;;;;;;;3.55;1.15;;;;;;;;;;5045385;28;20110;-59
2022/04/19 07:01:35;;;;;;;4.10;1.13;;;;;;;;;;5041965;28;20041;-59
2022/04/19 07:04:03;;;;;;;3.10;1.23;;;;;;;;;;5044326;28;20456;-60
2022/04/19 07:06:30;;;;;;;3.08;1.08;;;;;;;;;;5048429;28;20090;-59
2022/04/19 07:08:56;;;;;;;4.63;1.00;;;;;;;;;;5047004;28;20037;-59
2022/04/19 07:11:23;;;;;;;8.55;1.00;;;;;;;;;;5045797;28;20041;-59
2022/04/19 07:13:50;;;;;;;5.47;1.20;;;;;;;;;;5048775;28;20087;-60
2022/04/19 07:16:17;;;;;;;4.15;1.20;;;;;;;;;;5047154;28;20048;-60
2022/04/19 07:18:43;;;;;;;4.10;0.95;;;;;;;;;;5045740;28;20118;-59
2022/04/19 07:26:47;;;;;;;3.30;1.20;;;;;;;;;;5048154;28;20098;-59
2022/04/19 07:29:15;;;;;;;3.88;1.08;;;;;;;;;;5048246;28;20064;-59
2022/04/19 07:31:43;;;;;;;5.18;1.10;;;;;;;;;;5045498;28;20040;-59
2022/04/19 07:34:10;;;;;;;3.88;1.27;;;;;;;;;;5042572;28;20060;-59
2022/04/19 07:36:39;;;;;;;3.90;1.30;;;;;;;;;;5047242;28;20143;-60
2022/04/19 07:39:06;;;;;;;3.63;1.10;;;;;;;;;;5047300;28;20653;-58
2022/04/19 07:41:39;;;;;;;3.67;1.15;;;;;;;;;;5046000;28;20055;-60
2022/04/19 07:44:08;;;;;;;5.30;1.23;;;;;;;;;;5042610;28;20051;-58
2022/04/19 07:46:36;;;;;;;3.95;1.20;;;;;;;;;;5044092;28;20033;-60
2022/04/19 07:49:03;;;;;;;6.15;1.30;;;;;;;;;;5047338;28;20078;-60
2022/04/19 07:51:30;;;;;;;4.53;1.17;;;;;;;;;;5044521;28;20194;-60
2022/04/19 07:53:57;;;;;;;4.55;1.30;;;;;;;;;;5046322;28;20044;-59
2022/04/19 07:56:23;;;;;;;2.78;1.02;;;;;;;;;;5045238;28;20088;-60
2022/04/19 07:58:50;;;;;;;4.35;1.40;;;;;;;;;;5044783;28;20083;-59
2022/04/19 08:01:18;;;;;;;3.25;1.15;;;;;;;;;;5043327;28;20033;-59
2022/04/19 08:03:45;;;;;;;3.83;1.02;;;;;;;;;;5041241;28;20067;-60
2022/04/19 08:06:11;;;;;;;2.90;1.17;;;;;;;;;;5042931;28;20049;-61
2022/04/19 08:08:40;;;;;;;4.43;1.42;;;;;;;;;;5042563;28;20127;-60
2022/04/19 08:11:06;;;;;;;3.72;1.20;;;;;;;;;;5042384;28;20033;-60
2022/04/19 08:13:33;;;;;;;3.13;1.05;;;;;;;;;;5040621;28;20075;-59
2022/04/19 08:16:00;;;;;;;3.67;1.23;;;;;;;;;;5041653;28;20219;-61
2022/04/19 08:18:27;;;;;;;3.30;1.20;;;;;;;;;;5042357;28;20128;-59
2022/04/19 08:20:54;;;;;;;5.10;1.17;;;;;;;;;;5042754;28;20056;-59
2022/04/19 08:23:21;;;;;;;4.63;1.17;;;;;;;;;;5044290;28;20041;-61
2022/04/19 08:25:48;;;;;;;4.72;1.40;;;;;;;;;;5043687;28;20123;-60
2022/04/19 08:28:15;;;;;;;3.35;1.00;;;;;;;;;;5043408;28;20861;-60
2022/04/19 08:30:42;;;;;;;4.43;1.20;;;;;;;;;;5040635;28;20041;-61
2022/04/19 08:33:08;;;;;;;6.10;1.30;;;;;;;;;;5039586;28;20052;-60
2022/04/19 08:35:35;;;;;;;3.70;1.30;;;;;;;;;;5042236;28;20036;-61
2022/04/19 08:38:02;;;;;;;3.63;1.27;;;;;;;;;;5042149;28;20358;-62
2022/04/19 08:40:30;;;;;;;7.20;1.13;;;;;;;;;;5042092;28;20037;-62
2022/04/19 08:42:57;;;;;;;2.90;0.95;;;;;;;;;;5039031;28;21993;-61
2022/04/19 08:45:26;;;;;;;3.08;1.08;;;;;;;;;;5042735;28;20044;-60
2022/04/19 08:47:53;;;;;;;6.13;1.23;;;;;;;;;;5023447;28;20045;-60
2022/04/19 08:50:21;;;;;;;3.53;1.13;;;;;;;;;;5040769;28;20044;-61
2022/04/19 08:57:29;;;;;;;4.13;1.35;;;;;;;;;;5039337;28;20045;-60
2022/04/19 08:58:19;;;;;;;3.45;1.20;;;;;;;;;;5041350;28;20051;-60
2022/04/19 09:00:46;;;;;;;4.47;1.35;;;;;;;;;;5039799;28;20049;-61
2022/04/19 09:03:13;;;;;;;7.35;1.33;;;;;;;;;;5040279;28;20563;-61
2022/04/19 09:05:49;;;;;;;3.22;1.10;;;;;;;;;;5036482;28;20044;-61
2022/04/19 09:08:16;;;;;;;8.82;1.25;;;;;;;;;;5040860;28;20045;-61
2022/04/19 09:10:43;;;;;;;3.58;1.30;;;;;;;;;;5022419;28;20037;-61
2022/04/19 09:13:11;;;;;;;3.80;1.17;;;;;;;;;;5021904;28;20194;-59
2022/04/19 09:15:39;;;;;;;3.97;1.15;;;;;;;;;;5038745;28;20156;-61
2022/04/19 09:18:06;;;;;;;5.50;1.25;;;;;;;;;;5040838;28;20052;-60
2022/04/19 09:20:33;;;;;;;7.88;1.52;;;;;;;;;;5040678;28;20493;-60
2022/04/19 09:23:02;;;;;;;5.47;1.38;;;;;;;;;;5041720;28;20076;-60
2022/04/19 09:25:29;;;;;;;3.72;1.33;;;;;;;;;;5041422;28;20037;-59
2022/04/19 09:27:57;;;;;;;4.63;1.50;;;;;;;;;;5041087;28;20405;-60
2022/04/19 09:30:23;;;;;;;6.53;1.50;;;;;;;;;;5040908;28;20033;-59
2022/04/19 09:33:09;;;;;;;3.42;1.40;;;;;;;;;;5040292;28;20044;-59
2022/04/19 09:35:44;;;;;;;4.68;1.50;;;;;;;;;;5041572;28;20036;-60
2022/04/19 09:38:11;;;;;;;4.28;1.40;;;;;;;;;;5040216;28;20029;-59
2022/04/19 09:40:39;;;;;;;3.40;1.17;;;;;;;;;;5035538;28;20041;-60
2022/04/19 09:43:12;;;;;;;3.95;1.52;;;;;;;;;;5039800;28;20556;-60
2022/04/19 09:45:50;;;;;;;5.25;1.75;;;;;;;;;;5020009;28;20044;-59
2022/04/19 09:48:20;;;;;;;4.35;1.50;;;;;;;;;;5041404;28;20052;-59
2022/04/19 09:51:13;;;;;;;6.43;1.30;;;;;;;;;;5039259;28;20040;-60
2022/04/19 09:53:41;;;;;;;4.85;1.58;;;;;;;;;;5037524;28;20046;-59
2022/04/19 09:56:09;;;;;;;4.30;1.33;;;;;;;;;;5039980;28;20037;-60
2022/04/19 09:58:38;;;;;;;7.97;1.35;;;;;;;;;;5040333;28;20041;-59
2022/04/19 10:01:05;;;;;;;3.08;1.20;;;;;;;;;;5041158;28;20045;-60
2022/04/19 10:09:04;;;;;;;4.68;1.27;;;;;;;;;;5040325;28;20340;-58
2022/04/19 10:11:31;;;;;;;5.97;1.30;;;;;;;;;;5037132;28;20040;-60
2022/04/19 10:13:59;;;;;;;3.60;1.52;;;;;;;;;;5039692;28;20057;-60
2022/04/19 10:16:26;;;;;;;5.30;2.58;;;;;;;;;;5041423;28;20495;-61
2022/04/19 10:18:52;;;;;;;4.40;1.70;;;;;;;;;;5043437;28;20142;-61
2022/04/19 10:21:26;;;;;;;5.65;1.85;;;;;;;;;;5042099;28;20187;-60
2022/04/19 10:24:08;;;;;;;4.10;1.67;;;;;;;;;;5042012;28;20761;-60
2022/04/19 10:26:41;;;;;;;6.65;1.60;;;;;;;;;;5022677;28;20045;-59
2022/04/19 10:29:18;;;;;;;4.13;1.40;;;;;;;;;;5043436;28;20425;-60
2022/04/19 10:31:54;;;;;;;3.90;1.45;;;;;;;;;;5041307;28;20061;-60
2022/04/19 10:34:28;;;;;;;5.47;1.40;;;;;;;;;;5022977;28;20134;-60
2022/04/19 10:36:57;;;;;;;;;;;;;;;;;;5042289;28;20172;-61
2022/04/19 10:39:25;;;;;;;4.18;1.20;;;;;;;;;;5042942;28;19920;-60
2022/04/19 10:41:56;;;;;;;6.30;1.60;;;;;;;;;;5040105;28;20118;-60
2022/04/19 10:44:25;;;;;;;7.60;1.92;;;;;;;;;;5040347;28;20040;-60
2022/04/19 10:47:13;;;;;;;6.65;1.48;;;;;;;;;;5041160;28;20033;-57
2022/04/19 10:49:49;;;;;;;3.92;1.75;;;;;;;;;;5039395;28;20235;-61
2022/04/19 10:52:34;;;;;;;5.32;1.50;;;;;;;;;;5042560;28;20047;-60
2022/04/19 10:55:02;;;;;;;3.78;1.55;;;;;;;;;;5041914;28;20045;-61
2022/04/19 11:00:36;;;;;;;4.97;1.73;;;;;;;;;;5045560;28;20158;-59
2022/04/19 11:03:04;;;;;;;6.28;1.55;;;;;;;;;;5046852;28;20040;-60
2022/04/19 11:05:41;;;;;;;3.85;1.50;;;;;;;;;;5046043;28;20079;-61
2022/04/19 11:08:26;;;;;;;10.48;2.03;;;;;;;;;;5046013;28;20049;-61
2022/04/19 11:10:53;;;;;;;6.00;1.70;;;;;;;;;;5046151;28;20080;-61
2022/04/19 11:13:20;;;;;;;5.90;1.42;;;;;;;;;;5045371;28;21034;-61
2022/04/19 11:15:59;;;;;;;3.30;1.55;;;;;;;;;;5025778;28;20047;-61
2022/04/19 11:18:29;;;;;;;4.90;1.52;;;;;;;;;;5044543;28;20131;-61
2022/04/19 11:20:57;;;;;;;7.00;1.55;;;;;;;;;;5045521;28;20043;-60
2022/04/19 11:23:25;;;;;;;4.55;1.33;;;;;;;;;;5044331;28;20045;-60
2022/04/19 11:25:53;;;;;;;6.10;1.73;;;;;;;;;;5045189;28;20041;-60
2022/04/19 11:28:19;;;;;;;4.25;1.83;;;;;;;;;;5042576;28;20374;-61
2022/04/19 11:30:46;;;;;;;11.27;2.50;;;;;;;;;;5045147;28;20103;-60
2022/04/19 11:33:21;;;;;;;10.95;4.15;;;;;;;;;;5039000;28;20040;-58
2022/04/19 11:36:06;;;;;;;9.27;1.73;;;;;;;;;;5045352;28;20608;-61
2022/04/19 11:38:34;;;;;;;4.68;1.45;;;;;;;;;;5044523;28;20566;-62
2022/04/19 11:46:44;;;;;;;6.40;1.67;;;;;;;;;;5045688;28;20404;-62
2022/04/19 11:49:34;;;;;;;4.60;1.55;;;;;;;;;;5045114;28;20045;-62
2022/04/19 11:52:02;;;;;;;4.63;1.35;;;;;;;;;;5043024;28;20718;-61
2022/04/19 11:54:30;;;;;;;4.18;1.70;;;;;;;;;;5044718;28;20466;-60
2022/04/19 11:56:58;;;;;;;4.57;1.50;;;;;;;;;;5044735;28;20045;-59
2022/04/19 11:59:27;;;;;;;7.57;1.63;;;;;;;;;;5044058;28;20107;-61
2022/04/19 12:01:54;;;;;;;4.88;1.40;;;;;;;;;;5043147;28;20045;-60
2022/04/19 12:04:21;;;;;;;6.72;1.48;;;;;;;;;;5044772;28;20595;-61
2022/04/19 12:06:57;;;;;;;4.45;1.80;;;;;;;;;;5045429;28;20096;-59
2022/04/19 12:09:24;;;;;;;6.20;2.33;;;;;;;;;;5044043;28;20062;-62
2022/04/19 12:11:51;;;;;;;5.78;1.83;;;;;;;;;;5023627;28;20393;-58
2022/04/19 12:14:47;;;;;;;5.60;1.67;;;;;;;;;;5045672;28;20069;-59
2022/04/19 12:17:19;;;;;;;3.47;1.35;;;;;;;;;;5027367;28;20045;-60
2022/04/19 12:19:46;;;;;;;3.55;1.40;;;;;;;;;;5043498;28;20558;-60
2022/04/19 12:22:20;;;;;;;3.95;1.75;;;;;;;;;;5042693;28;20040;-60
2022/04/19 12:24:48;;;;;;;4.70;1.70;;;;;;;;;;5039685;28;20041;-61
2022/04/19 12:27:15;;;;;;;5.93;2.75;;;;;;;;;;5041333;28;20045;-60
2022/04/19 12:30:02;;;;;;;4.82;1.23;;;;;;;;;;5040921;28;20038;-60
2022/04/19 12:32:51;;;;;;;4.38;1.63;;;;;;;;;;5040361;28;20124;-59
2022/04/19 12:35:18;;;;;;;3.60;1.30;;;;;;;;;;5042067;28;20162;-60
2022/04/19 12:38:03;;;;;;;3.78;1.33;;;;;;;;;;5039566;28;20064;-60
2022/04/19 12:40:36;;;;;;;4.15;1.30;;;;;;;;;;5040736;28;20041;-60
2022/04/19 12:43:03;;;;;;;8.82;1.63;;;;;;;;;;5041717;28;20041;-60
2022/04/19 12:45:35;;;;;;;5.90;2.60;;;;;;;;;;5042777;28;20510;-61
2022/04/19 12:48:01;;;;;;;4.88;1.90;;;;;;;;;;5039224;28;20476;-59
2022/04/19 12:50:29;;;;;;;4.53;1.17;;;;;;;;;;5040389;28;20045;-60
2022/04/19 12:52:55;;;;;;;3.88;1.40;;;;;;;;;;5043152;28;20052;-61
2022/04/19 12:55:53;;;;;;;5.60;1.35;;;;;;;;;;5041200;28;20045;-61
2022/04/19 12:58:20;;;;;;;3.65;1.10;;;;;;;;;;5042218;28;20052;-61
2022/04/19 13:00:46;;;;;;;4.25;1.38;;;;;;;;;;5042303;28;20037;-61
2022/04/19 13:03:14;;;;;;;6.78;1.60;;;;;;;;;;5041762;28;20047;-64
2022/04/19 13:13:59;;;;;;;4.75;1.42;;;;;;;;;;5040403;28;20646;-61
2022/04/19 13:16:27;;;;;;;3.17;1.20;;;;;;;;;;5023602;28;20470;-60
2022/04/19 13:18:53;;;;;;;4.30;1.35;;;;;;;;;;5041070;28;20059;-60
2022/04/19 13:21:20;;;;;;;6.97;1.35;;;;;;;;;;5041433;28;20059;-61
2022/04/19 13:23:47;;;;;;;3.92;1.40;;;;;;;;;;5040183;28;20064;-64
2022/04/19 13:26:13;;;;;;;5.07;1.40;;;;;;;;;;5040961;28;21591;-62
2022/04/19 13:28:40;;;;;;;3.83;1.55;;;;;;;;;;5039082;28;20036;-62
2022/04/19 13:31:07;;;;;;;4.32;1.65;;;;;;;;;;5040212;28;20107;-60
2022/04/19 13:33:33;;;;;;;4.38;1.50;;;;;;;;;;5018559;28;20041;-62
2022/04/19 13:36:00;;;;;;;4.35;1.40;;;;;;;;;;5041119;28;20037;-63
2022/04/19 13:38:27;;;;;;;6.13;1.23;;;;;;;;;;5041776;28;20830;-62
2022/04/19 13:40:54;;;;;;;5.25;1.20;;;;;;;;;;5040853;28;20770;-62
2022/04/19 13:43:20;;;;;;;5.90;1.70;;;;;;;;;;5033766;28;20044;-64
2022/04/19 13:45:48;;;;;;;5.70;1.63;;;;;;;;;;5041347;28;20041;-64
2022/04/19 13:48:14;;;;;;;3.95;1.70;;;;;;;;;;5039023;28;20037;-61
2022/04/19 13:50:41;;;;;;;6.10;1.25;;;;;;;;;;5039197;28;20059;-60
2022/04/19 13:53:08;;;;;;;12.82;1.40;;;;;;;;;;5041971;28;20091;-62
2022/04/19 13:55:35;;;;;;;5.55;1.60;;;;;;;;;;5041424;28;20048;-62
2022/04/19 13:58:01;;;;;;;4.05;1.30;;;;;;;;;;5039369;28;20041;-61
2022/04/19 14:00:28;;;;;;;6.35;1.17;;;;;;;;;;5039747;28;20040;-60
2022/04/19 14:02:55;;;;;;;2.90;1.00;;;;;;;;;;5040744;28;20040;-63
2022/04/19 14:05:22;;;;;;;9.05;1.50;;;;;;;;;;5041388;28;20048;-61
2022/04/19 14:07:48;;;;;;;6.57;1.27;;;;;;;;;;5039942;28;20457;-61
2022/04/19 14:10:15;;;;;;;3.35;1.20;;;;;;;;;;5042460;28;20067;-62
2022/04/19 14:12:42;;;;;;;4.13;1.40;;;;;;;;;;5039100;28;20131;-62
2022/04/19 14:15:09;;;;;;;4.25;1.48;;;;;;;;;;5042165;28;20132;-62
2022/04/19 14:17:35;;;;;;;7.88;1.40;;;;;;;;;;5020470;28;20048;-61
2022/04/19 14:20:02;;;;;;;5.00;1.42;;;;;;;;;;5042128;28;20520;-62
2022/04/19 14:22:29;;;;;;;5.18;1.67;;;;;;;;;;5044507;28;20037;-62
2022/04/19 14:24:55;;;;;;;4.38;1.50;;;;;;;;;;5043907;28;20160;-62
2022/04/19 14:27:22;;;;;;;6.95;1.40;;;;;;;;;;5041146;28;20089;-62
2022/04/19 14:35:19;;;;;;;3.55;1.33;;;;;;;;;;5041559;28;21817;-62
2022/04/19 14:37:49;;;;;;;6.50;1.70;;;;;;;;;;5039566;28;20473;-63
2022/04/19 14:40:16;;;;;;;5.30;1.45;;;;;;;;;;5041027;28;20037;-63
2022/04/19 14:42:44;;;;;;;3.90;1.20;;;;;;;;;;5038547;28;20047;-62
2022/04/19 14:45:13;;;;;;;18.52;1.40;;;;;;;;;;5040033;28;20456;-62
2022/04/19 14:47:40;;;;;;;5.07;1.35;;;;;;;;;;5039324;28;20866;-62
2022/04/19 14:50:07;;;;;;;5.15;1.20;;;;;;;;;;5038921;28;20118;-63
2022/04/19 14:52:34;;;;;;;5.07;1.33;;;;;;;;;;5038537;28;20128;-62
2022/04/19 14:55:01;;;;;;;3.47;1.30;;;;;;;;;;5041591;28;20131;-62
2022/04/19 14:57:27;;;;;;;4.55;1.50;;;;;;;;;;5040302;28;20541;-63
2022/04/19 14:59:54;;;;;;;6.32;1.20;;;;;;;;;;5039509;28;20121;-63
2022/04/19 15:02:21;;;;;;;3.35;1.45;;;;;;;;;;5039126;28;20368;-62
2022/04/19 15:04:48;;;;;;;4.88;1.10;;;;;;;;;;5038368;28;20044;-62
2022/04/19 15:07:14;;;;;;;4.10;1.35;;;;;;;;;;5039196;28;20029;-62
2022/04/19 15:09:41;;;;;;;4.40;1.52;;;;;;;;;;5037959;28;20045;-61
2022/04/19 15:12:13;;;;;;;5.95;1.27;;;;;;;;;;5039126;28;20033;-61
2022/04/19 15:14:40;;;;;;;3.30;1.35;;;;;;;;;;5038504;28;20120;-62
2022/04/19 15:17:06;;;;;;;5.00;1.40;;;;;;;;;;5038813;28;20041;-61
2022/04/19 15:19:33;;;;;;;6.38;1.40;;;;;;;;;;5039938;28;20037;-61
2022/04/19 15:22:00;;;;;;;8.32;1.90;;;;;;;;;;5038260;28;20525;-62
2022/04/19 15:24:27;;;;;;;3.83;1.17;;;;;;;;;;5040116;28;20036;-62
2022/04/19 15:26:53;;;;;;;8.02;1.33;;;;;;;;;;5041024;28;20424;-62
2022/04/19 15:29:20;;;;;;;4.13;1.80;;;;;;;;;;5019732;28;20533;-62
2022/04/19 15:31:48;;;;;;;4.03;1.38;;;;;;;;;;5039857;28;20060;-62
2022/04/19 15:34:16;;;;;;;3.92;1.55;;;;;;;;;;5039660;28;20045;-62
2022/04/19 15:36:43;;;;;;;6.30;1.50;;;;;;;;;;5040852;28;20041;-62
2022/04/19 15:39:09;;;;;;;5.90;1.40;;;;;;;;;;5037991;28;20033;-64
2022/04/19 15:41:36;;;;;;;8.88;1.85;;;;;;;;;;5042239;28;20041;-63